createdAt,value
2022-11-16T00:01:14.835Z,99000.47
2022-11-16T00:03:16.515Z,98990.72
2022-11-16T00:05:20.340Z,98996.09
2022-11-16T00:07:23.864Z,98991.69
2022-11-16T00:09:25.724Z,98995.22
2022-11-16T00:11:27.470Z,98989.84
2022-11-16T00:13:29.205Z,98994.25
2022-11-16T00:15:30.892Z,98993.41
2022-11-16T00:17:32.968Z,98984.34
2022-11-16T00:19:34.675Z,98990.72
2022-11-16T00:21:36.364Z,98998.63
2022-11-16T00:23:38.124Z,98994.09
2022-11-16T00:25:39.753Z,98992.41
2022-11-16T00:27:41.372Z,98988.69
2022-11-16T00:29:43.064Z,98992.25
2022-11-16T00:31:45.282Z,98994.97
2022-11-16T00:33:47.144Z,98994.09
2022-11-16T00:35:48.877Z,98991.41
2022-11-16T00:37:51.672Z,98999.47
2022-11-16T00:39:53.363Z,98998.50
2022-11-16T00:41:55.070Z,98994.97
2022-11-16T00:43:56.815Z,98994.09
2022-11-16T00:45:58.523Z,98987.72
2022-11-16T00:48:00.756Z,98994.97
2022-11-16T00:50:02.741Z,98995.78
2022-11-16T00:52:04.453Z,98988.69
2022-11-16T00:54:06.700Z,98995.78
2022-11-16T00:56:08.340Z,98994.09
2022-11-16T00:58:10.446Z,98996.78
2022-11-16T01:00:12.616Z,99002.16
2022-11-16T01:02:14.354Z,98994.09
2022-11-16T01:04:16.153Z,98992.41
2022-11-16T01:06:17.869Z,98990.72
2022-11-16T01:08:19.600Z,98991.56
2022-11-16T01:10:22.168Z,98988.03
2022-11-16T01:12:23.887Z,98996.09
2022-11-16T01:14:25.640Z,98992.53
2022-11-16T01:16:27.520Z,98991.69
2022-11-16T01:18:29.203Z,98989.84
2022-11-16T01:20:30.947Z,98995.22
2022-11-16T01:22:35.319Z,98989.00
2022-11-16T01:24:36.818Z,98993.41
2022-11-16T01:26:38.520Z,98990.72
2022-11-16T01:28:40.315Z,98997.78
2022-11-16T01:30:42.006Z,98994.09
2022-11-16T01:32:43.693Z,98994.09
2022-11-16T01:34:45.403Z,98995.78
2022-11-16T01:36:47.393Z,98990.41
2022-11-16T01:38:49.086Z,98994.78
2022-11-16T01:40:50.939Z,98992.97
2022-11-16T01:42:52.739Z,98997.47
2022-11-16T01:45:06.212Z,99000.16
2022-11-16T01:47:12.797Z,98995.78
2022-11-16T01:49:16.878Z,99000.16
2022-11-16T01:51:18.632Z,99006.44
2022-11-16T01:53:20.376Z,99000.16
2022-11-16T01:55:22.193Z,98999.19
2022-11-16T01:57:26.651Z,99000.16
2022-11-16T01:59:29.115Z,99002.88
2022-11-16T02:01:30.794Z,99008.25
2022-11-16T02:03:32.515Z,99005.56
2022-11-16T02:05:54.156Z,99008.25
2022-11-16T02:08:05.726Z,99007.25
2022-11-16T02:10:16.977Z,99004.84
2022-11-16T02:12:32.362Z,99008.25
2022-11-16T02:14:38.327Z,99012.78
2022-11-16T02:17:01.279Z,99011.94
2022-11-16T02:19:25.582Z,99020.03
2022-11-16T02:22:04.006Z,99015.63
2022-11-16T02:24:11.476Z,99022.00
2022-11-16T02:26:31.783Z,99023.69
2022-11-16T02:28:39.214Z,99030.91
2022-11-16T02:30:43.474Z,99029.25
2022-11-16T02:33:00.988Z,99028.41
2022-11-16T02:35:39.075Z,99024.84
2022-11-16T02:37:44.593Z,99029.38
2022-11-16T02:39:47.459Z,99029.38
2022-11-16T02:41:49.185Z,99023.84
2022-11-16T02:43:53.026Z,99022.00
2022-11-16T02:45:56.234Z,99030.91
2022-11-16T02:48:00.448Z,99029.94
2022-11-16T02:50:07.165Z,99028.09
2022-11-16T02:52:08.923Z,99033.47
2022-11-16T02:54:12.282Z,99036.16
2022-11-16T02:56:14.074Z,99038.03
2022-11-16T02:58:18.548Z,99040.53
2022-11-16T03:00:47.124Z,99034.31
2022-11-16T03:02:54.996Z,99040.53
2022-11-16T03:05:13.487Z,99040.53
2022-11-16T03:07:15.830Z,99044.25
2022-11-16T03:09:20.159Z,99046.09
2022-11-16T03:11:21.786Z,99044.25
2022-11-16T03:13:24.739Z,99042.25
2022-11-16T03:15:26.440Z,99043.09
2022-11-16T03:17:30.987Z,99043.22
2022-11-16T03:20:05.344Z,99047.63
2022-11-16T03:22:17.741Z,99047.63
2022-11-16T03:24:19.459Z,99047.63
2022-11-16T03:26:23.569Z,99040.53
2022-11-16T03:28:31.463Z,99050.47
2022-11-16T03:30:36.672Z,99049.63
2022-11-16T03:32:43.690Z,99056.69
2022-11-16T03:34:56.745Z,99054.00
2022-11-16T03:36:58.418Z,99053.16
2022-11-16T03:39:03.216Z,99051.47
2022-11-16T03:41:07.435Z,99059.53
2022-11-16T03:43:09.187Z,99063.06
2022-11-16T03:45:12.135Z,99059.53
2022-11-16T03:47:13.799Z,99060.38
2022-11-16T03:49:15.467Z,99067.44
2022-11-16T03:51:17.187Z,99067.44
2022-11-16T03:53:18.868Z,99067.44
2022-11-16T03:55:20.551Z,99067.44
2022-11-16T03:57:22.235Z,99068.47
2022-11-16T03:59:24.015Z,99069.16
2022-11-16T04:01:25.756Z,99065.47
2022-11-16T04:03:27.460Z,99073.53
2022-11-16T04:05:29.581Z,99070.84
2022-11-16T04:07:31.824Z,99073.53
2022-11-16T04:09:33.708Z,99074.56
2022-11-16T04:11:36.089Z,99082.63
2022-11-16T04:13:37.826Z,99082.63
2022-11-16T04:15:39.818Z,99081.63
2022-11-16T04:17:41.994Z,99078.94
2022-11-16T04:19:43.880Z,99082.47
2022-11-16T04:21:49.730Z,99086.03
2022-11-16T04:23:51.420Z,99093.22
2022-11-16T04:25:53.054Z,99087.00
2022-11-16T04:27:54.775Z,99099.47
2022-11-16T04:29:58.611Z,99092.38
2022-11-16T04:32:00.464Z,99102.31
2022-11-16T04:34:02.220Z,99094.09
2022-11-16T04:36:04.569Z,99092.38
2022-11-16T04:38:06.291Z,99090.69
2022-11-16T04:40:08.553Z,99095.25
2022-11-16T04:42:17.025Z,99094.38
2022-11-16T04:44:18.992Z,99097.22
2022-11-16T04:46:20.662Z,99098.06
2022-11-16T04:48:22.255Z,99090.13
2022-11-16T04:50:23.855Z,99092.81
2022-11-16T04:52:25.464Z,99104.44
2022-11-16T04:54:27.089Z,99096.53
2022-11-16T04:56:28.683Z,99092.97
2022-11-16T04:58:30.438Z,99096.53
2022-11-16T05:00:32.230Z,99098.38
2022-11-16T05:02:33.834Z,99102.88
2022-11-16T05:04:36.600Z,99100.34
2022-11-16T05:06:38.201Z,99102.34
2022-11-16T05:08:39.784Z,99115.66
2022-11-16T05:10:41.397Z,99105.03
2022-11-16T05:12:43.030Z,99112.25
2022-11-16T05:14:44.709Z,99113.09
2022-11-16T05:16:46.308Z,99106.00
2022-11-16T05:18:47.899Z,99104.31
2022-11-16T05:20:49.515Z,99107.00
2022-11-16T05:22:57.439Z,99112.53
2022-11-16T05:24:59.092Z,99108.03
2022-11-16T05:27:08.295Z,99102.63
2022-11-16T05:29:10.002Z,99109.00
2022-11-16T05:31:11.622Z,99111.69
2022-11-16T05:33:13.190Z,99115.22
2022-11-16T05:35:14.863Z,99123.28
2022-11-16T05:37:16.486Z,99119.75
2022-11-16T05:39:18.078Z,99124.28
2022-11-16T05:41:19.668Z,99130.53
2022-11-16T05:43:21.250Z,99123.28
2022-11-16T05:45:22.838Z,99124.28
2022-11-16T05:47:24.429Z,99127.97
2022-11-16T05:49:26.046Z,99136.03
2022-11-16T05:51:27.657Z,99135.19
2022-11-16T05:53:29.244Z,99137.75
2022-11-16T05:55:30.834Z,99135.91
2022-11-16T05:57:32.425Z,99133.22
2022-11-16T05:59:34.023Z,99134.22
2022-11-16T06:01:35.653Z,99132.50
2022-11-16T06:03:37.319Z,99137.19
2022-11-16T06:05:40.619Z,99142.56
2022-11-16T06:07:42.377Z,99139.19
2022-11-16T06:09:43.970Z,99145.69
2022-11-16T06:11:45.569Z,99143.16
2022-11-16T06:13:47.225Z,99144.13
2022-11-16T06:15:54.261Z,99148.78
2022-11-16T06:17:55.856Z,99142.72
2022-11-16T06:19:57.467Z,99134.78
2022-11-16T06:21:59.066Z,99139.47
2022-11-16T06:24:00.702Z,99141.31
2022-11-16T06:26:02.307Z,99144.00
2022-11-16T06:28:07.746Z,99140.47
2022-11-16T06:30:10.008Z,99140.59
2022-11-16T06:32:11.607Z,99147.97
2022-11-16T06:34:13.186Z,99146.28
2022-11-16T06:36:15.010Z,99150.94
2022-11-16T06:38:16.653Z,99146.53
2022-11-16T06:40:18.385Z,99154.78
2022-11-16T06:42:19.970Z,99146.84
2022-11-16T06:44:21.595Z,99145.16
2022-11-16T06:46:23.202Z,99142.59
2022-11-16T06:48:24.897Z,99142.72
2022-11-16T06:50:26.512Z,99137.50
2022-11-16T06:52:28.109Z,99138.34
2022-11-16T06:54:29.740Z,99133.81
2022-11-16T06:56:31.331Z,99138.06
2022-11-16T06:58:33.443Z,99145.16
2022-11-16T07:00:35.379Z,99150.25
2022-11-16T07:02:37.920Z,99147.53
2022-11-16T07:04:39.641Z,99142.03
2022-11-16T07:06:41.292Z,99142.88
2022-11-16T07:08:43.051Z,99138.34
2022-11-16T07:10:44.749Z,99139.19
2022-11-16T07:12:46.461Z,99135.53
2022-11-16T07:14:48.180Z,99138.22
2022-11-16T07:16:52.661Z,99139.91
2022-11-16T07:18:58.435Z,99146.28
2022-11-16T07:21:00.108Z,99141.88
2022-11-16T07:23:02.892Z,99140.91
2022-11-16T07:25:05.321Z,99139.06
2022-11-16T07:27:07.855Z,99140.91
2022-11-16T07:29:09.762Z,99141.75
2022-11-16T07:31:12.418Z,99143.59
2022-11-16T07:33:14.047Z,99147.97
2022-11-16T07:35:16.762Z,99149.69
2022-11-16T07:37:18.867Z,99153.34
2022-11-16T07:39:20.452Z,99153.34
2022-11-16T07:41:22.314Z,99147.97
2022-11-16T07:43:23.980Z,99147.97
2022-11-16T07:45:25.618Z,99146.28
2022-11-16T07:47:27.201Z,99153.34
2022-11-16T07:49:29.396Z,99147.97
2022-11-16T07:51:31.675Z,99147.13
2022-11-16T07:53:33.547Z,99157.03
2022-11-16T07:55:35.138Z,99156.16
2022-11-16T07:57:36.891Z,99155.31
2022-11-16T07:59:38.651Z,99154.47
2022-11-16T08:01:40.339Z,99159.03
2022-11-16T08:03:44.311Z,99152.78
2022-11-16T08:05:45.953Z,99157.31
2022-11-16T08:07:47.717Z,99157.31
2022-11-16T08:09:49.389Z,99155.63
2022-11-16T08:11:51.136Z,99158.31
2022-11-16T08:13:53.279Z,99152.09
2022-11-16T08:15:54.905Z,99152.09
2022-11-16T08:17:59.974Z,99152.22
2022-11-16T08:20:02.328Z,99146.84
2022-11-16T08:22:04.018Z,99152.22
2022-11-16T08:24:06.470Z,99151.38
2022-11-16T08:26:09.900Z,99155.91
2022-11-16T08:28:11.829Z,99149.66
2022-11-16T08:30:13.760Z,99157.88
2022-11-16T08:32:15.450Z,99153.34
2022-11-16T08:34:17.032Z,99152.50
2022-11-16T08:36:18.783Z,99158.84
2022-11-16T08:38:20.805Z,99163.41
2022-11-16T08:40:22.570Z,99166.94
2022-11-16T08:42:24.157Z,99169.63
2022-11-16T08:44:25.736Z,99171.59
2022-11-16T08:46:27.322Z,99170.63
2022-11-16T08:48:28.915Z,99177.84
2022-11-16T08:50:33.469Z,99171.47
2022-11-16T08:52:41.395Z,99168.91
2022-11-16T08:54:42.992Z,99167.09
2022-11-16T08:56:45.164Z,99173.44
2022-11-16T08:58:47.078Z,99174.28
2022-11-16T09:00:49.060Z,99175.28
2022-11-16T09:02:50.643Z,99176.97
2022-11-16T09:04:52.892Z,99172.59
2022-11-16T09:06:54.507Z,99179.81
2022-11-16T09:08:56.289Z,99181.66
2022-11-16T09:10:57.929Z,99164.66
2022-11-16T09:12:59.544Z,99170.03
2022-11-16T09:15:01.169Z,99171.88
2022-11-16T09:17:02.799Z,99169.19
2022-11-16T09:19:04.387Z,99166.50
2022-11-16T09:21:06.137Z,99167.50
2022-11-16T09:23:07.721Z,99167.50
2022-11-16T09:25:09.780Z,99167.50
2022-11-16T09:27:11.402Z,99172.88
2022-11-16T09:29:13.916Z,99163.09
2022-11-16T09:31:20.288Z,99157.72
2022-11-16T09:33:24.676Z,99160.41
2022-11-16T09:35:26.283Z,99160.41
2022-11-16T09:37:27.863Z,99151.50
2022-11-16T09:39:31.618Z,99162.13
2022-11-16T09:41:55.418Z,99157.72
2022-11-16T09:44:24.406Z,99162.13
2022-11-16T09:46:29.471Z,99158.44
2022-11-16T09:48:31.527Z,99153.06
2022-11-16T09:50:41.949Z,99155.75
2022-11-16T09:52:45.729Z,99151.38
2022-11-16T09:54:47.332Z,99155.75
2022-11-16T09:56:50.700Z,99153.91
2022-11-16T09:59:15.043Z,99153.06
2022-11-16T10:02:01.013Z,99152.09
2022-11-16T10:04:22.768Z,99151.09
2022-11-16T10:06:29.336Z,99154.78
2022-11-16T10:08:42.992Z,99143.16
2022-11-16T10:10:55.424Z,99149.41
2022-11-16T10:13:20.035Z,99160.16
2022-11-16T10:15:39.452Z,99149.41
2022-11-16T10:17:43.631Z,99146.00
2022-11-16T10:20:06.914Z,99147.69
2022-11-16T10:22:19.751Z,99158.44
2022-11-16T10:24:59.365Z,99161.97
2022-11-16T10:27:25.187Z,99161.13
2022-11-16T10:29:43.965Z,99159.44
2022-11-16T10:32:12.295Z,99160.28
2022-11-16T10:34:19.442Z,99158.56
2022-11-16T10:36:21.060Z,99164.66
2022-11-16T10:38:28.305Z,99155.88
2022-11-16T10:40:35.214Z,99158.44
2022-11-16T10:42:37.384Z,99169.19
2022-11-16T10:44:41.791Z,99163.09
2022-11-16T10:46:44.160Z,99170.34
2022-11-16T10:48:48.497Z,99158.72
2022-11-16T10:50:50.078Z,99169.50
2022-11-16T10:52:51.662Z,99179.41
2022-11-16T10:54:53.390Z,99167.78
2022-11-16T10:57:05.644Z,99178.53
2022-11-16T10:59:10.703Z,99166.94
2022-11-16T11:01:12.389Z,99175.00
2022-11-16T11:03:14.158Z,99175.84
2022-11-16T11:05:19.713Z,99171.47
2022-11-16T11:07:39.781Z,99166.94
2022-11-16T11:09:41.576Z,99170.47
2022-11-16T11:11:43.171Z,99168.78
2022-11-16T11:13:44.779Z,99171.47
2022-11-16T11:15:47.878Z,99166.94
2022-11-16T11:17:50.650Z,99169.63
2022-11-16T11:20:15.252Z,99162.41
2022-11-16T11:22:16.857Z,99165.97
2022-11-16T11:24:43.237Z,99162.41
2022-11-16T11:26:40.868Z,99162.41
2022-11-16T11:28:46.747Z,99171.47
2022-11-16T11:31:09.552Z,99160.72
2022-11-16T11:33:14.915Z,99170.63
2022-11-16T11:35:27.940Z,99162.41
2022-11-16T11:37:36.570Z,99161.72
2022-11-16T11:39:38.205Z,99165.25
2022-11-16T11:41:44.083Z,99159.88
2022-11-16T11:43:47.294Z,99164.41
2022-11-16T11:45:52.273Z,99166.09
2022-11-16T11:48:03.093Z,99168.78
2022-11-16T11:50:25.975Z,99162.69
2022-11-16T11:52:39.796Z,99159.03
2022-11-16T11:54:45.906Z,99159.03
2022-11-16T11:56:47.885Z,99157.31
2022-11-16T11:58:49.917Z,99168.91
2022-11-16T12:01:20.744Z,99157.31
2022-11-16T12:03:50.867Z,99161.84
2022-11-16T12:06:24.804Z,99159.16
2022-11-16T12:08:51.730Z,99155.59
2022-11-16T12:11:33.489Z,99157.41
2022-11-16T12:13:43.745Z,99153.88
2022-11-16T12:16:06.554Z,99148.50
2022-11-16T12:18:08.186Z,99153.88
2022-11-16T12:20:29.897Z,99144.97
2022-11-16T12:22:46.678Z,99139.59
2022-11-16T12:25:25.371Z,99137.75
2022-11-16T12:27:33.259Z,99143.13
2022-11-16T12:29:44.389Z,99138.56
2022-11-16T12:32:23.041Z,99132.13
2022-11-16T12:34:42.827Z,99139.19
2022-11-16T12:37:04.938Z,99132.69
2022-11-16T12:39:22.967Z,99131.53
2022-11-16T12:41:58.720Z,99136.78
2022-11-16T12:44:01.006Z,99133.81
2022-11-16T12:46:11.329Z,99134.66
2022-11-16T12:48:43.837Z,99145.28
2022-11-16T12:51:30.471Z,99146.00
2022-11-16T12:53:41.239Z,99144.00
2022-11-16T12:55:58.059Z,99143.00
2022-11-16T12:58:27.532Z,99145.69
2022-11-16T13:00:29.464Z,99142.88
2022-11-16T13:02:58.921Z,99147.25
2022-11-16T13:05:06.206Z,99155.31
2022-11-16T13:07:14.457Z,99155.19
2022-11-16T13:09:17.462Z,99161.41
2022-11-16T13:11:40.297Z,99156.75
2022-11-16T13:13:43.429Z,99160.44
2022-11-16T13:15:46.482Z,99153.22
2022-11-16T13:18:00.037Z,99152.22
2022-11-16T13:20:22.813Z,99153.03
2022-11-16T13:22:24.485Z,99156.63
2022-11-16T13:24:38.100Z,99152.06
2022-11-16T13:27:15.479Z,99149.38
2022-11-16T13:29:20.389Z,99147.53
2022-11-16T13:31:27.216Z,99145.69
2022-11-16T13:33:31.933Z,99151.06
2022-11-16T13:35:38.351Z,99151.06
2022-11-16T13:37:39.844Z,99147.41
2022-11-16T13:39:50.594Z,99152.78
2022-11-16T13:42:06.176Z,99148.25
2022-11-16T13:44:16.541Z,99145.44
2022-11-16T13:46:48.185Z,99156.19
2022-11-16T13:48:39.871Z,99161.56
2022-11-16T13:50:42.018Z,99158.00
2022-11-16T13:53:36.347Z,99159.72
2022-11-16T13:55:15.179Z,99157.88
2022-11-16T13:57:34.517Z,99156.19
2022-11-16T13:59:38.302Z,99165.09
2022-11-16T14:02:00.284Z,99166.94
2022-11-16T14:04:42.203Z,99167.63
2022-11-16T14:06:44.256Z,99161.41
2022-11-16T14:08:53.429Z,99161.28
2022-11-16T14:10:55.044Z,99167.50
2022-11-16T14:12:57.073Z,99162.97
2022-11-16T14:15:11.988Z,99170.06
2022-11-16T14:17:13.532Z,99168.06
2022-11-16T14:19:45.529Z,99167.78
2022-11-16T14:21:55.780Z,99172.72
2022-11-16T14:24:08.193Z,99171.47
2022-11-16T14:26:18.358Z,99181.78
2022-11-16T14:28:36.062Z,99187.72
2022-11-16T14:30:55.611Z,99191.84
2022-11-16T14:32:57.414Z,99194.41
2022-11-16T14:34:59.444Z,99187.88
2022-11-16T14:37:01.167Z,99193.09
2022-11-16T14:39:31.484Z,99190.13
2022-11-16T14:41:35.623Z,99193.50
2022-11-16T14:43:42.855Z,99197.06
2022-11-16T14:45:47.462Z,99191.41
2022-11-16T14:47:49.204Z,99201.03
2022-11-16T14:49:51.058Z,99200.03
2022-11-16T14:51:55.315Z,99196.38
2022-11-16T14:53:57.845Z,99199.75
2022-11-16T14:56:13.448Z,99196.06
2022-11-16T14:58:19.207Z,99194.09
2022-11-16T15:00:22.560Z,99192.09
2022-11-16T15:02:25.259Z,99189.28
2022-11-16T15:04:27.081Z,99198.91
2022-11-16T15:06:57.935Z,99193.22
2022-11-16T15:09:01.069Z,99190.38
2022-11-16T15:11:02.926Z,99185.84
2022-11-16T15:13:04.606Z,99185.84
2022-11-16T15:15:07.553Z,99194.91
2022-11-16T15:17:14.042Z,99195.78
2022-11-16T15:19:15.741Z,99185.13
2022-11-16T15:21:21.820Z,99188.66
2022-11-16T15:23:31.043Z,99195.78
2022-11-16T15:25:43.741Z,99188.66
2022-11-16T15:27:45.434Z,99187.81
2022-11-16T15:29:47.661Z,99182.44
2022-11-16T15:31:49.520Z,99178.91
2022-11-16T15:33:51.279Z,99186.13
2022-11-16T15:35:54.971Z,99179.03
2022-11-16T15:38:03.325Z,99185.56
2022-11-16T15:40:05.965Z,99185.03
2022-11-16T15:42:12.110Z,99187.28
2022-11-16T15:44:21.526Z,99178.50
2022-11-16T15:46:27.256Z,99156.28
2022-11-16T15:48:29.804Z,99178.78
2022-11-16T15:50:31.536Z,99180.50
2022-11-16T15:52:47.589Z,99176.81
2022-11-16T15:54:57.531Z,99177.66
2022-11-16T15:57:07.566Z,99188.00
2022-11-16T15:59:30.277Z,99177.34
2022-11-16T16:01:32.048Z,99174.06
2022-11-16T16:03:34.251Z,99174.19
2022-11-16T16:05:40.187Z,99170.75
2022-11-16T16:07:42.520Z,99171.00
2022-11-16T16:09:44.484Z,99165.03
2022-11-16T16:11:46.882Z,99170.66
2022-11-16T16:14:03.377Z,99170.22
2022-11-16T16:16:23.025Z,99170.59
2022-11-16T16:18:25.264Z,99170.34
2022-11-16T16:20:31.058Z,99175.31
2022-11-16T16:22:34.700Z,99175.00
2022-11-16T16:24:46.192Z,99167.75
2022-11-16T16:26:48.962Z,99170.31
2022-11-16T16:28:50.879Z,99168.31
2022-11-16T16:30:52.635Z,99174.22
2022-11-16T16:32:54.689Z,99167.84
2022-11-16T16:34:57.924Z,99169.41
2022-11-16T16:36:59.630Z,99168.38
2022-11-16T16:39:01.357Z,99171.09
2022-11-16T16:41:04.756Z,99159.16
2022-11-16T16:43:06.421Z,99164.41
2022-11-16T16:45:15.101Z,99177.56
2022-11-16T16:47:17.766Z,99163.94
2022-11-16T16:49:19.493Z,99160.22
2022-11-16T16:51:21.182Z,99152.84
2022-11-16T16:53:23.971Z,99154.56
2022-11-16T16:55:25.782Z,99157.06
2022-11-16T16:57:27.671Z,99161.31
2022-11-16T16:59:29.591Z,99159.31
2022-11-16T17:01:31.433Z,99150.25
2022-11-16T17:03:33.583Z,99148.25
2022-11-16T17:05:35.884Z,99154.34
2022-11-16T17:07:37.570Z,99149.63
2022-11-16T17:09:39.295Z,99156.72
2022-11-16T17:11:41.000Z,99150.63
2022-11-16T17:13:42.654Z,99155.00
2022-11-16T17:15:44.823Z,99150.50
2022-11-16T17:17:46.576Z,99151.66
2022-11-16T17:19:48.577Z,99142.53
2022-11-16T17:21:51.792Z,99147.94
2022-11-16T17:23:54.670Z,99147.94
2022-11-16T17:25:56.419Z,99147.63
2022-11-16T17:27:59.475Z,99144.06
2022-11-16T17:30:01.234Z,99146.78
2022-11-16T17:32:03.058Z,99139.69
2022-11-16T17:34:06.445Z,99137.84
2022-11-16T17:36:13.953Z,99138.69
2022-11-16T17:38:15.620Z,99136.81
2022-11-16T17:40:17.368Z,99133.16
2022-11-16T17:42:19.108Z,99133.16
2022-11-16T17:44:22.119Z,99137.66
2022-11-16T17:46:24.233Z,99126.88
2022-11-16T17:48:29.387Z,99127.75
2022-11-16T17:50:31.112Z,99134.31
2022-11-16T17:52:32.846Z,99123.66
2022-11-16T17:54:35.282Z,99116.16
2022-11-16T17:56:36.962Z,99119.31
2022-11-16T17:58:38.764Z,99128.44
2022-11-16T18:00:40.968Z,99123.50
2022-11-16T18:02:42.622Z,99115.34
2022-11-16T18:04:49.604Z,99120.94
2022-11-16T18:06:52.831Z,99109.31
2022-11-16T18:08:54.715Z,99121.19
2022-11-16T18:10:58.162Z,99121.63
2022-11-16T18:13:00.727Z,99122.06
2022-11-16T18:15:29.253Z,99118.09
2022-11-16T18:17:24.258Z,99114.03
2022-11-16T18:19:26.021Z,99111.94
2022-11-16T18:21:27.841Z,99119.75
2022-11-16T18:23:29.504Z,99117.50
2022-11-16T18:25:33.993Z,99110.75
2022-11-16T18:27:35.593Z,99111.00
2022-11-16T18:29:37.187Z,99115.84
2022-11-16T18:31:38.796Z,99110.75
2022-11-16T18:33:40.544Z,99107.22
2022-11-16T18:35:42.903Z,99103.38
2022-11-16T18:37:44.589Z,99106.34
2022-11-16T18:39:46.280Z,99102.88
2022-11-16T18:41:53.372Z,99104.69
2022-11-16T18:44:00.785Z,99099.25
2022-11-16T18:46:02.513Z,99098.06
2022-11-16T18:48:04.643Z,99099.56
2022-11-16T18:50:06.557Z,99100.53
2022-11-16T18:52:08.223Z,99097.91
2022-11-16T18:54:09.866Z,99093.28
2022-11-16T18:56:11.675Z,99093.22
2022-11-16T18:58:43.466Z,99087.75
2022-11-16T19:00:35.004Z,99088.66
2022-11-16T19:02:37.979Z,99088.75
2022-11-16T19:04:39.722Z,99090.13
2022-11-16T19:06:41.404Z,99091.22
2022-11-16T19:08:43.546Z,99088.06
2022-11-16T19:10:45.302Z,99090.28
2022-11-16T19:12:47.086Z,99089.97
2022-11-16T19:14:48.864Z,99095.22
2022-11-16T19:16:56.685Z,99093.03
2022-11-16T19:18:58.949Z,99090.88
2022-11-16T19:21:11.189Z,99083.63
2022-11-16T19:23:12.957Z,99082.97
2022-11-16T19:25:14.799Z,99090.78
2022-11-16T19:27:17.268Z,99086.06
2022-11-16T19:29:19.024Z,99081.38
2022-11-16T19:31:25.577Z,99082.03
2022-11-16T19:33:28.451Z,99079.50
2022-11-16T19:35:30.186Z,99084.69
2022-11-16T19:37:31.864Z,99076.50
2022-11-16T19:39:33.621Z,99078.34
2022-11-16T19:41:35.292Z,99074.41
2022-11-16T19:43:37.428Z,99080.44
2022-11-16T19:45:39.297Z,99077.34
2022-11-16T19:47:41.126Z,99068.00
2022-11-16T19:49:42.850Z,99065.94
2022-11-16T19:51:44.558Z,99067.41
2022-11-16T19:53:46.490Z,99077.50
2022-11-16T19:55:54.944Z,99077.13
2022-11-16T19:57:56.743Z,99078.59
2022-11-16T19:59:58.463Z,99070.25
2022-11-16T20:02:00.353Z,99069.03
2022-11-16T20:04:02.531Z,99067.47
2022-11-16T20:06:11.238Z,99070.63
2022-11-16T20:08:12.981Z,99068.41
2022-11-16T20:10:14.826Z,99068.72
2022-11-16T20:12:16.492Z,99062.94
2022-11-16T20:14:18.235Z,99058.84
2022-11-16T20:16:21.066Z,99068.06
2022-11-16T20:18:22.763Z,99068.19
2022-11-16T20:20:24.508Z,99071.06
2022-11-16T20:22:26.328Z,99069.53
2022-11-16T20:24:28.069Z,99068.13
2022-11-16T20:26:32.544Z,99063.88
2022-11-16T20:28:37.151Z,99058.63
2022-11-16T20:30:38.942Z,99060.81
2022-11-16T20:32:40.639Z,99056.41
2022-11-16T20:34:42.369Z,99057.53
2022-11-16T20:36:45.391Z,99054.47
2022-11-16T20:38:47.085Z,99048.38
2022-11-16T20:40:48.828Z,99046.97
2022-11-16T20:42:50.492Z,99043.63
2022-11-16T20:44:52.191Z,99037.53
2022-11-16T20:46:53.947Z,99042.22
2022-11-16T20:48:55.849Z,99036.13
2022-11-16T20:50:57.522Z,99037.81
2022-11-16T20:52:59.202Z,99038.41
2022-11-16T20:55:00.922Z,99039.41
2022-11-16T20:57:02.648Z,99040.41
2022-11-16T20:59:04.415Z,99030.94
2022-11-16T21:01:08.363Z,99042.72
2022-11-16T21:03:10.136Z,99045.53
2022-11-16T21:05:11.952Z,99045.00
2022-11-16T21:07:13.706Z,99047.97
2022-11-16T21:09:15.545Z,99043.88
2022-11-16T21:11:19.097Z,99048.59
2022-11-16T21:13:20.901Z,99038.25
2022-11-16T21:15:22.595Z,99038.69
2022-11-16T21:17:24.284Z,99041.66
2022-11-16T21:19:25.934Z,99039.97
2022-11-16T21:21:27.670Z,99036.56
2022-11-16T21:23:30.618Z,99040.28
2022-11-16T21:25:32.304Z,99038.56
2022-11-16T21:27:33.980Z,99022.72
2022-11-16T21:29:35.749Z,99032.78
2022-11-16T21:31:37.436Z,99025.72
2022-11-16T21:33:39.150Z,99024.16
2022-11-16T21:35:40.850Z,99032.22
2022-11-16T21:37:42.508Z,99025.13
2022-11-16T21:39:44.230Z,99023.59
2022-11-16T21:41:45.903Z,99023.59
2022-11-16T21:43:47.653Z,99021.03
2022-11-16T21:45:49.352Z,99023.91
2022-11-16T21:47:51.092Z,99017.81
2022-11-16T21:50:24.710Z,99017.94
2022-11-16T21:52:14.622Z,99017.41
2022-11-16T21:54:16.356Z,99019.38
2022-11-16T21:56:20.646Z,99011.59
2022-11-16T21:58:22.412Z,99014.59
2022-11-16T22:00:24.236Z,99007.66
2022-11-16T22:02:25.885Z,99015.84
2022-11-16T22:04:27.656Z,99017.88
2022-11-16T22:06:29.488Z,99010.91
2022-11-16T22:08:31.199Z,99017.44
2022-11-16T22:10:33.052Z,99014.75
2022-11-16T22:12:34.792Z,99012.34
2022-11-16T22:14:36.577Z,99005.28
2022-11-16T22:16:38.369Z,99014.34
2022-11-16T22:18:40.110Z,99010.09
2022-11-16T22:20:41.821Z,99005.88
2022-11-16T22:22:43.741Z,99011.25
2022-11-16T22:24:45.505Z,98999.66
2022-11-16T22:26:47.247Z,99007.84
2022-11-16T22:28:48.948Z,98997.09
2022-11-16T22:30:52.244Z,98994.53
2022-11-16T22:32:54.082Z,98999.06
2022-11-16T22:34:55.824Z,98996.38
2022-11-16T22:36:57.443Z,98987.47
2022-11-16T22:38:59.157Z,98984.91
2022-11-16T22:41:00.802Z,98995.69
2022-11-16T22:43:02.557Z,98994.00
2022-11-16T22:45:04.695Z,98993.16
2022-11-16T22:47:06.415Z,99003.06
2022-11-16T22:49:08.212Z,98994.25
2022-11-16T22:51:21.332Z,98999.63
2022-11-16T22:53:23.008Z,98987.16
2022-11-16T22:55:24.732Z,98986.31
2022-11-16T22:57:26.473Z,98990.03
2022-11-16T22:59:28.189Z,98978.41
2022-11-16T23:01:29.908Z,98982.09
2022-11-16T23:03:31.847Z,98974.03
2022-11-16T23:05:33.724Z,98975.88
2022-11-16T23:07:35.547Z,98976.00
2022-11-16T23:09:37.386Z,98973.31
2022-11-16T23:11:39.079Z,98976.00
2022-11-16T23:13:40.785Z,98968.94
2022-11-16T23:15:42.462Z,98970.75
2022-11-16T23:17:45.499Z,98970.75
2022-11-16T23:19:47.146Z,98978.69
2022-11-16T23:21:48.882Z,98968.06
2022-11-16T23:23:53.166Z,98968.94
2022-11-16T23:25:54.891Z,98975.28
2022-11-16T23:28:08.579Z,98964.53
2022-11-16T23:30:12.833Z,98959.47
2022-11-16T23:32:15.197Z,98957.75
2022-11-16T23:34:16.968Z,98951.53
2022-11-16T23:36:18.713Z,98952.38
2022-11-16T23:38:26.658Z,98950.69
2022-11-16T23:40:56.443Z,98946.31
2022-11-16T23:42:58.162Z,98944.47
2022-11-16T23:44:59.978Z,98945.31
2022-11-16T23:47:01.739Z,98949.00
2022-11-16T23:49:03.493Z,98947.28
2022-11-16T23:51:05.383Z,98947.28
2022-11-16T23:53:07.662Z,98942.06
2022-11-16T23:55:12.255Z,98951.00
2022-11-16T23:57:25.708Z,98944.75
2022-11-16T23:59:29.970Z,98941.22
